Time;durP1;ratioP1;P1;durP2;ratioP2;P2;SDS_P1;SDS_P2;PMS_P1;PMS_P2;Temp;Humidity;BMP_temperature;BMP_pressure;BME280_temperature;BME280_humidity;BME280_pressure;Samples;Min_cycle;Max_cycle;Signal;HPM_P1;HPM_P2
2023/10/04 00:05:36;;;;;;;20.92;7.05;;;;;;;21.19;100.00;101638.22;20984866;28;20053;-68
2023/10/04 00:15:59;;;;;;;17.48;5.55;;;;;;;21.18;100.00;101630.16;20995234;28;20052;-68
2023/10/04 00:26:23;;;;;;;20.00;5.80;;;;;;;21.21;100.00;101622.03;20991132;28;20053;-68
2023/10/04 00:36:46;;;;;;;17.77;5.70;;;;;;;21.18;100.00;101609.56;21007599;28;20079;-68
2023/10/04 00:47:12;;;;;;;20.80;6.07;;;;;;;21.14;100.00;101614.94;20977111;28;20133;-68
2023/10/04 00:57:35;;;;;;;23.27;5.65;;;;;;;21.10;100.00;101598.00;20972297;28;20049;-67
2023/10/04 01:08:01;;;;;;;20.85;6.53;;;;;;;21.11;100.00;101597.09;20970271;28;20098;-68
2023/10/04 01:18:28;;;;;;;16.80;5.30;;;;;;;21.06;100.00;101597.19;20962399;28;20052;-68
2023/10/04 01:28:52;;;;;;;15.95;6.25;;;;;;;20.98;100.00;101584.75;20988728;28;20049;-68
2023/10/04 01:39:19;;;;;;;18.20;5.53;;;;;;;20.96;100.00;101608.03;21004490;28;20562;-68
2023/10/04 01:49:43;;;;;;;17.15;5.95;;;;;;;20.96;100.00;101598.19;20962626;28;20048;-68
2023/10/04 02:00:09;;;;;;;15.80;5.57;;;;;;;20.89;100.00;101599.19;20995039;28;20049;-67
2023/10/04 02:10:36;;;;;;;19.60;6.72;;;;;;;20.86;100.00;101604.63;20991416;28;20048;-68
2023/10/04 02:20:59;;;;;;;17.25;6.22;;;;;;;20.85;100.00;101594.78;20991817;28;20158;-68
2023/10/04 02:31:24;;;;;;;17.35;6.28;;;;;;;20.89;100.00;101587.56;20905740;28;20056;-67
2023/10/04 02:41:47;;;;;;;19.83;6.22;;;;;;;20.92;100.00;101598.25;20979882;28;20151;-68
2023/10/04 02:52:13;;;;;;;21.77;6.78;;;;;;;20.85;100.00;101584.03;20974508;28;20174;-67
2023/10/04 03:02:37;;;;;;;14.80;6.17;;;;;;;20.85;100.00;101588.53;20961703;28;20058;-68
2023/10/04 03:13:11;;;;;;;19.95;6.80;;;;;;;20.88;100.00;101597.41;20986765;28;20474;-68
2023/10/04 03:23:35;;;;;;;22.40;6.07;;;;;;;20.89;100.00;101595.59;20969448;28;20060;-67
2023/10/04 03:34:04;;;;;;;14.88;6.15;;;;;;;20.96;100.00;101597.31;20985065;28;20060;-68
2023/10/04 03:44:27;;;;;;;18.30;6.97;;;;;;;20.96;100.00;101591.94;20972683;28;20591;-68
2023/10/04 03:54:51;;;;;;;19.77;5.95;;;;;;;20.89;100.00;101600.97;20980299;28;20049;-68
2023/10/04 04:05:15;;;;;;;16.08;6.47;;;;;;;20.82;100.00;101592.13;20990659;28;20049;-68
2023/10/04 04:15:40;;;;;;;20.02;7.13;;;;;;;20.79;100.00;101605.59;20971140;28;20075;-67
2023/10/04 04:26:05;;;;;;;17.65;5.97;;;;;;;20.77;100.00;101611.88;20983295;28;20517;-68
2023/10/04 04:36:32;;;;;;;20.67;6.45;;;;;;;20.78;100.00;101621.72;20989353;28;20059;-68
2023/10/04 04:47:04;;;;;;;19.83;7.03;;;;;;;20.83;100.00;101622.53;20987909;28;20090;-68
2023/10/04 04:57:28;;;;;;;20.83;6.47;;;;;;;20.92;100.00;101642.13;20994116;28;20048;-68
2023/10/04 05:07:51;;;;;;;19.77;6.75;;;;;;;21.16;100.00;101648.97;20987638;28;20504;-68
2023/10/04 05:18:17;;;;;;;17.98;6.03;;;;;;;21.40;100.00;101650.41;20963359;28;20139;-68
2023/10/04 05:28:40;;;;;;;19.55;6.20;;;;;;;21.47;100.00;101660.16;20984856;28;20583;-68
2023/10/04 05:39:07;;;;;;;15.65;5.78;;;;;;;21.81;100.00;101661.41;20947319;28;20668;-68
2023/10/04 05:49:30;;;;;;;16.05;5.82;;;;;;;22.09;100.00;101672.63;20940920;28;20480;-67
2023/10/04 05:59:54;;;;;;;12.65;5.15;;;;;;;22.24;100.00;101696.59;20994793;28;20056;-68
2023/10/04 06:10:18;;;;;;;13.65;5.15;;;;;;;22.90;100.00;101701.66;20994098;28;20080;-68
2023/10/04 06:20:45;;;;;;;15.18;5.30;;;;;;;23.74;100.00;101706.13;20989784;28;20041;-68
2023/10/04 06:31:08;;;;;;;17.43;5.97;;;;;;;24.07;100.00;101717.00;20999334;28;20143;-68
2023/10/04 06:41:34;;;;;;;18.55;6.28;;;;;;;25.24;100.00;101728.25;20923866;28;20036;-68
2023/10/04 06:51:57;;;;;;;16.95;5.63;;;;;;;25.30;100.00;101732.59;20969276;28;20139;-68
2023/10/04 07:02:21;;;;;;;15.93;5.78;;;;;;;25.05;100.00;101743.22;20954817;28;20136;-68
2023/10/04 07:12:45;;;;;;;17.60;6.97;;;;;;;24.92;100.00;101737.28;20957940;28;20060;-68
2023/10/04 07:23:13;;;;;;;16.05;5.80;;;;;;;26.28;100.00;101752.97;20989913;28;20064;-68
2023/10/04 07:33:35;;;;;;;14.35;5.10;;;;;;;26.34;100.00;101746.44;20936717;28;20570;-68
2023/10/04 07:44:00;;;;;;;12.60;4.78;;;;;;;27.26;100.00;101758.50;20996872;28;20056;-68
2023/10/04 07:54:23;;;;;;;14.40;5.13;;;;;;;26.83;99.63;101761.88;21019653;28;20149;-69
2023/10/04 08:04:48;;;;;;;14.32;5.38;;;;;;;26.66;97.62;101759.75;20962849;28;20044;-68
2023/10/04 08:15:14;;;;;;;17.85;6.22;;;;;;;27.03;93.01;101763.91;20936900;28;20421;-68
2023/10/04 08:25:39;;;;;;;22.10;6.73;;;;;;;26.90;92.55;101758.94;20916454;28;20060;-68
2023/10/04 08:36:08;;;;;;;16.33;5.90;;;;;;;27.53;92.75;101751.16;20964170;28;20118;-69
2023/10/04 08:46:34;;;;;;;14.98;5.53;;;;;;;28.29;83.41;101757.09;20977513;28;20128;-69
2023/10/04 08:56:57;;;;;;;;;;;;;;;28.44;78.54;101753.75;21006372;28;20137;-69
2023/10/04 09:07:23;;;;;;;14.63;5.13;;;;;;;28.52;74.65;101739.84;20959630;28;19931;-69
2023/10/04 09:17:47;;;;;;;14.93;4.77;;;;;;;28.74;70.70;101732.56;20964590;28;20052;-70
2023/10/04 09:28:12;;;;;;;14.10;5.45;;;;;;;29.14;65.35;101736.19;20983652;28;20076;-70
2023/10/04 09:38:35;;;;;;;13.05;5.30;;;;;;;29.20;62.33;101746.78;21007060;28;20048;-70
2023/10/04 09:49:06;;;;;;;15.13;5.68;;;;;;;29.23;59.77;101743.91;20977158;28;20053;-70
2023/10/04 09:59:30;;;;;;;17.40;5.15;;;;;;;28.71;62.01;101746.22;20986691;28;20067;-69
2023/10/04 10:10:02;;;;;;;17.15;5.97;;;;;;;28.13;64.18;101737.84;20941426;28;20045;-69
2023/10/04 10:20:25;;;;;;;22.67;6.70;;;;;;;28.41;65.52;101734.00;20956018;28;20048;-69
2023/10/04 10:31:00;;;;;;;19.45;5.90;;;;;;;28.65;65.32;101727.47;20954673;28;20516;-68
2023/10/04 10:42:03;;;;;;;18.20;5.90;;;;;;;28.75;61.97;101722.56;20966273;28;20143;-68
2023/10/04 10:52:41;;;;;;;13.05;5.50;;;;;;;28.65;60.80;101710.28;20980081;28;20044;-68
2023/10/04 11:03:09;;;;;;;13.75;5.95;;;;;;;28.50;61.40;101693.69;20992101;28;20056;-69
2023/10/04 11:13:34;;;;;;;16.15;6.20;;;;;;;28.54;61.42;101689.91;20967580;28;20051;-68
2023/10/04 11:24:01;;;;;;;14.95;6.18;;;;;;;28.17;60.88;101687.00;21004687;28;20197;-69
2023/10/04 11:34:27;;;;;;;16.92;6.20;;;;;;;28.02;62.67;101688.53;20967942;28;20040;-70
2023/10/04 11:44:50;;;;;;;17.23;7.00;;;;;;;27.92;61.41;101676.28;20965796;28;20058;-70
2023/10/04 11:55:28;;;;;;;15.30;6.20;;;;;;;27.92;64.03;101672.69;20988385;28;20510;-68
2023/10/04 12:05:51;;;;;;;13.02;6.60;;;;;;;28.05;66.13;101672.09;20969455;28;20048;-70
2023/10/04 12:16:17;;;;;;;22.40;6.75;;;;;;;27.66;68.91;101666.50;20957752;28;20043;-69
2023/10/04 12:26:39;;;;;;;18.65;7.65;;;;;;;27.38;72.55;101668.50;20950181;28;20474;-70
2023/10/04 12:37:04;;;;;;;19.02;6.93;;;;;;;27.26;74.13;101661.75;20976992;28;20049;-69
2023/10/04 12:47:26;;;;;;;18.85;6.88;;;;;;;27.14;74.59;101645.97;20957030;28;20151;-69
2023/10/04 12:57:50;;;;;;;21.33;7.70;;;;;;;26.88;73.24;101651.47;20961104;28;20093;-68
2023/10/04 13:08:16;;;;;;;18.08;7.18;;;;;;;26.68;76.02;101643.19;20951876;28;20576;-71
2023/10/04 13:18:40;;;;;;;17.33;7.43;;;;;;;26.64;77.56;101652.41;20968523;28;20051;-69
2023/10/04 13:29:09;;;;;;;19.52;7.20;;;;;;;26.64;77.84;101649.69;20950447;28;20401;-70
2023/10/04 13:39:34;;;;;;;16.90;6.78;;;;;;;26.50;77.16;101647.47;20974110;28;20046;-69
2023/10/04 13:49:57;;;;;;;18.00;7.43;;;;;;;26.31;79.89;101644.53;20975450;28;20045;-69
2023/10/04 14:00:22;;;;;;;17.77;7.00;;;;;;;26.29;78.79;101631.97;20974278;28;20063;-70
2023/10/04 14:10:45;;;;;;;17.10;6.90;;;;;;;26.14;78.84;101630.66;20999191;28;20044;-69
2023/10/04 14:21:09;;;;;;;18.88;7.00;;;;;;;25.84;78.98;101632.63;20976500;28;20052;-69
2023/10/04 14:31:33;;;;;;;17.27;7.35;;;;;;;25.50;81.79;101637.31;20983158;28;20465;-69
2023/10/04 14:41:58;;;;;;;14.45;6.82;;;;;;;25.26;84.80;101645.28;20964959;28;20052;-69
2023/10/04 14:52:21;;;;;;;17.63;6.68;;;;;;;25.00;86.19;101647.91;21035650;28;20571;-68
2023/10/04 15:02:46;;;;;;;22.88;8.32;;;;;;;24.85;88.34;101659.13;21050225;28;20052;-69
2023/10/04 15:13:09;;;;;;;22.83;8.35;;;;;;;24.59;89.12;101668.84;20926990;28;20144;-69
2023/10/04 15:23:36;;;;;;;22.35;8.05;;;;;;;24.38;90.53;101666.72;20941606;28;20531;-69
2023/10/04 15:33:58;;;;;;;17.88;7.78;;;;;;;24.11;92.51;101675.50;20943856;28;20041;-68
2023/10/04 15:44:23;;;;;;;22.13;7.90;;;;;;;23.91;96.36;101685.91;20960263;28;20056;-69
2023/10/04 15:54:46;;;;;;;19.63;7.47;;;;;;;23.75;99.77;101680.94;20944477;28;20053;-69
2023/10/04 16:05:12;;;;;;;20.10;8.05;;;;;;;23.59;100.00;101684.00;20941262;28;20139;-69
2023/10/04 16:15:35;;;;;;;24.42;8.57;;;;;;;23.43;100.00;101700.47;20941529;28;20067;-70
2023/10/04 16:25:59;;;;;;;19.40;8.07;;;;;;;23.32;100.00;101702.53;20936336;28;20481;-70
2023/10/04 16:36:21;;;;;;;21.33;8.27;;;;;;;23.31;100.00;101705.25;20928218;28;20043;-69
2023/10/04 16:46:46;;;;;;;19.48;8.48;;;;;;;23.21;100.00;101717.19;20959738;28;20059;-69
2023/10/04 16:57:10;;;;;;;23.63;9.30;;;;;;;23.09;100.00;101722.81;20935489;28;20122;-68
2023/10/04 17:07:35;;;;;;;21.40;9.60;;;;;;;22.88;100.00;101733.13;20956380;28;20218;-69
2023/10/04 17:18:08;;;;;;;25.88;12.93;;;;;;;22.72;100.00;101734.28;20804147;28;20197;-69
2023/10/04 17:28:32;;;;;;;23.25;8.93;;;;;;;22.56;100.00;101740.88;20937067;28;20049;-69
2023/10/04 17:38:55;;;;;;;19.95;8.32;;;;;;;22.36;100.00;101741.22;20963902;28;20048;-68
2023/10/04 17:49:19;;;;;;;28.48;13.13;;;;;;;22.23;100.00;101754.00;20955941;28;20052;-69
2023/10/04 17:59:42;;;;;;;24.30;11.48;;;;;;;22.15;100.00;101763.09;20976854;28;20041;-68
2023/10/04 18:10:10;;;;;;;18.15;7.82;;;;;;;22.05;100.00;101772.25;20948522;28;20063;-69
2023/10/04 18:20:32;;;;;;;19.17;8.88;;;;;;;21.94;100.00;101764.28;20980774;28;20067;-69
2023/10/04 18:30:57;;;;;;;19.05;7.53;;;;;;;21.69;100.00;101766.44;20961229;28;20135;-69
2023/10/04 18:41:19;;;;;;;20.33;8.43;;;;;;;21.60;100.00;101771.06;20959649;28;20455;-69
2023/10/04 18:51:44;;;;;;;19.25;8.38;;;;;;;21.41;100.00;101783.84;21000191;28;20052;-68
2023/10/04 19:02:07;;;;;;;18.58;7.85;;;;;;;21.27;100.00;101770.59;20946356;28;20094;-70
2023/10/04 19:12:33;;;;;;;21.75;8.13;;;;;;;21.13;100.00;101775.22;20987121;28;20055;-69
2023/10/04 19:22:56;;;;;;;18.88;8.32;;;;;;;21.03;100.00;101776.22;20927145;28;20048;-69
2023/10/04 19:33:20;;;;;;;17.23;8.25;;;;;;;20.95;100.00;101773.63;21011329;28;20047;-69
2023/10/04 19:43:44;;;;;;;16.67;8.23;;;;;;;20.86;100.00;101781.78;20942700;28;20056;-69
2023/10/04 19:54:09;;;;;;;17.95;7.75;;;;;;;20.81;100.00;101780.91;20965994;28;20050;-69
2023/10/04 20:04:33;;;;;;;22.95;8.57;;;;;;;20.62;100.00;101787.38;20945927;28;20041;-69
2023/10/04 20:14:59;;;;;;;18.27;8.50;;;;;;;20.52;100.00;101786.59;20983823;28;20083;-69
2023/10/04 20:25:22;;;;;;;18.45;8.00;;;;;;;20.37;100.00;101788.50;20965345;28;20060;-70
2023/10/04 20:35:46;;;;;;;17.98;7.65;;;;;;;20.26;100.00;101773.34;21000439;28;20056;-69
2023/10/04 20:46:09;;;;;;;18.70;7.57;;;;;;;20.17;100.00;101754.66;20984608;28;20048;-69
2023/10/04 20:56:34;;;;;;;21.83;8.55;;;;;;;20.12;100.00;101750.22;20985956;28;20078;-69
2023/10/04 21:06:57;;;;;;;20.98;8.20;;;;;;;20.04;100.00;101741.34;20943784;28;20048;-69
2023/10/04 21:17:21;;;;;;;19.25;8.00;;;;;;;20.01;100.00;101739.59;21000993;28;20048;-69
2023/10/04 21:27:44;;;;;;;18.75;8.77;;;;;;;19.93;100.00;101738.75;20936465;28;20060;-69
2023/10/04 21:38:09;;;;;;;17.95;7.60;;;;;;;19.83;100.00;101734.34;20992843;28;20059;-69
2023/10/04 21:48:32;;;;;;;17.15;7.25;;;;;;;19.75;100.00;101731.75;21002144;28;20041;-69
2023/10/04 21:58:57;;;;;;;19.27;7.82;;;;;;;19.69;100.00;101723.72;21016612;28;20052;-68
2023/10/04 22:09:23;;;;;;;16.98;7.32;;;;;;;19.61;100.00;101725.56;21004200;28;20044;-69
2023/10/04 22:19:47;;;;;;;18.90;7.57;;;;;;;19.56;100.00;101721.16;20983557;28;20676;-69
2023/10/04 22:30:17;;;;;;;19.08;7.75;;;;;;;19.53;100.00;101718.47;20979263;28;20045;-69
2023/10/04 22:40:41;;;;;;;20.85;8.32;;;;;;;19.53;100.00;101713.13;21002296;28;20049;-69
2023/10/04 22:51:04;;;;;;;19.52;7.22;;;;;;;19.41;100.00;101719.41;20998279;28;20455;-69
2023/10/04 23:01:30;;;;;;;15.93;7.43;;;;;;;19.39;100.00;101721.19;20973095;28;20493;-69
2023/10/04 23:11:53;;;;;;;14.85;6.65;;;;;;;19.34;100.00;101718.53;20964517;28;20052;-69
2023/10/04 23:22:19;;;;;;;16.27;7.03;;;;;;;19.30;100.00;101713.19;20969059;28;20138;-69
2023/10/04 23:32:43;;;;;;;18.65;6.75;;;;;;;19.18;100.00;101702.53;20979653;28;20485;-68
2023/10/04 23:43:09;;;;;;;18.38;7.43;;;;;;;18.91;100.00;101690.16;20968813;28;20375;-68
